createdAt,value
2022-09-01T00:00:02.650Z,13.70
2022-09-01T00:02:33.240Z,13.80
2022-09-01T00:05:00.559Z,13.80
2022-09-01T00:07:31.900Z,13.80
2022-09-01T00:10:04.784Z,13.80
2022-09-01T00:12:31.898Z,13.70
2022-09-01T00:14:59.228Z,13.80
2022-09-01T00:17:26.925Z,13.70
2022-09-01T00:19:53.897Z,13.70
2022-09-01T00:22:20.754Z,13.70
2022-09-01T00:24:47.645Z,13.70
2022-09-01T00:27:14.446Z,13.70
2022-09-01T00:29:43.138Z,13.70
2022-09-01T00:32:11.618Z,13.70
2022-09-01T00:34:38.865Z,13.70
2022-09-01T00:37:05.959Z,13.60
2022-09-01T00:39:32.802Z,13.70
2022-09-01T00:41:59.642Z,13.70
2022-09-01T00:44:29.627Z,13.70
2022-09-01T00:46:58.786Z,13.60
2022-09-01T00:49:31.504Z,13.60
2022-09-01T00:52:08.017Z,13.60
2022-09-01T00:54:37.634Z,13.60
2022-09-01T00:57:05.960Z,13.50
2022-09-01T00:59:32.938Z,13.50
2022-09-01T01:01:59.835Z,13.50
2022-09-01T01:04:26.651Z,13.50
2022-09-01T01:07:02.250Z,13.40
2022-09-01T01:09:32.976Z,13.40
2022-09-01T01:12:02.392Z,13.40
2022-09-01T01:14:32.243Z,13.40
2022-09-01T01:17:00.615Z,13.30
2022-09-01T01:19:59.145Z,13.30
2022-09-01T01:23:05.041Z,13.20
2022-09-01T01:25:44.374Z,13.30
2022-09-01T01:28:19.699Z,13.20
2022-09-01T01:30:57.761Z,13.20
2022-09-01T01:33:32.032Z,13.30
2022-09-01T01:35:59.990Z,13.30
2022-09-01T01:38:30.099Z,13.30
2022-09-01T01:40:57.703Z,13.30
2022-09-01T01:43:26.366Z,13.40
2022-09-01T01:45:56.697Z,13.40
2022-09-01T01:48:28.223Z,13.50
2022-09-01T01:50:59.877Z,13.50
2022-09-01T01:53:27.850Z,13.60
2022-09-01T01:55:56.086Z,13.60
2022-09-01T01:58:25.452Z,13.60
2022-09-01T02:00:54.209Z,13.50
2022-09-01T02:03:24.978Z,13.60
2022-09-01T02:05:54.248Z,13.70
2022-09-01T02:08:25.917Z,13.70
2022-09-01T02:10:54.988Z,13.70
2022-09-01T02:13:26.591Z,13.60
2022-09-01T02:15:55.541Z,13.60
2022-09-01T02:18:34.284Z,13.50
2022-09-01T02:21:03.031Z,13.60
2022-09-01T02:23:29.956Z,13.50
2022-09-01T02:26:16.247Z,13.50
2022-09-01T02:28:54.446Z,13.40
2022-09-01T02:31:27.957Z,13.40
2022-09-01T02:33:56.007Z,13.40
2022-09-01T02:36:25.659Z,13.40
2022-09-01T02:38:56.644Z,13.40
2022-09-01T02:41:27.137Z,13.30
2022-09-01T02:43:54.443Z,13.30
2022-09-01T02:46:23.539Z,13.30
2022-09-01T02:48:52.547Z,13.30
2022-09-01T02:51:25.338Z,13.30
2022-09-01T02:53:53.155Z,13.20
2022-09-01T02:56:25.068Z,13.10
2022-09-01T02:58:53.845Z,13.10
2022-09-01T03:01:25.405Z,13.00
2022-09-01T03:03:55.374Z,13.10
2022-09-01T03:06:24.300Z,13.10
2022-09-01T03:08:59.594Z,13.10
2022-09-01T03:11:29.241Z,13.10
2022-09-01T03:13:56.680Z,13.10
2022-09-01T03:16:23.902Z,13.10
2022-09-01T03:18:51.939Z,13.10
2022-09-01T03:21:20.679Z,13.00
2022-09-01T03:23:49.361Z,13.00
2022-09-01T03:26:19.350Z,13.00
2022-09-01T03:28:46.935Z,13.00
2022-09-01T03:31:14.464Z,13.00
2022-09-01T03:33:42.648Z,13.00
2022-09-01T03:36:19.741Z,12.90
2022-09-01T03:38:48.834Z,12.90
2022-09-01T03:41:21.572Z,12.90
2022-09-01T03:43:49.099Z,12.90
2022-09-01T03:46:21.625Z,12.90
2022-09-01T03:48:55.044Z,12.90
2022-09-01T03:51:23.558Z,12.80
2022-09-01T03:53:57.364Z,12.80
2022-09-01T03:56:27.816Z,12.80
2022-09-01T03:58:58.168Z,12.80
2022-09-01T04:01:41.546Z,12.80
2022-09-01T04:04:08.976Z,12.70
2022-09-01T04:06:37.483Z,12.70
2022-09-01T04:09:04.283Z,12.60
2022-09-01T04:11:33.582Z,12.60
2022-09-01T04:14:01.031Z,12.60
2022-09-01T04:16:52.935Z,12.60
2022-09-01T04:19:26.246Z,12.50
2022-09-01T04:21:57.314Z,12.50
2022-09-01T04:24:28.292Z,12.50
2022-09-01T04:26:58.715Z,12.50
2022-09-01T04:29:29.161Z,12.50
2022-09-01T04:32:05.219Z,12.50
2022-09-01T04:34:39.819Z,12.50
2022-09-01T04:37:21.533Z,12.50
2022-09-01T04:39:57.243Z,12.50
2022-09-01T04:42:29.430Z,12.50
2022-09-01T04:44:59.962Z,12.40
2022-09-01T04:47:35.332Z,12.40
2022-09-01T04:50:14.041Z,12.40
2022-09-01T04:52:45.032Z,12.40
2022-09-01T04:55:22.086Z,12.40
2022-09-01T04:57:50.217Z,12.40
2022-09-01T05:00:23.625Z,12.40
2022-09-01T05:02:53.293Z,12.40
2022-09-01T05:05:23.756Z,12.40
2022-09-01T05:07:55.352Z,12.40
2022-09-01T05:10:23.349Z,12.50
2022-09-01T05:13:12.401Z,12.50
2022-09-01T05:15:46.568Z,12.60
2022-09-01T05:18:15.700Z,12.60
2022-09-01T05:20:43.426Z,12.70
2022-09-01T05:23:12.740Z,12.70
2022-09-01T05:25:42.101Z,12.70
2022-09-01T05:28:09.929Z,12.80
2022-09-01T05:30:39.695Z,13.00
2022-09-01T05:33:11.603Z,13.00
2022-09-01T05:35:43.475Z,13.00
2022-09-01T05:38:13.068Z,13.10
2022-09-01T05:40:41.617Z,13.20
2022-09-01T05:43:12.652Z,13.30
2022-09-01T05:46:03.351Z,13.40
2022-09-01T05:48:36.155Z,13.40
2022-09-01T05:51:17.639Z,13.60
2022-09-01T05:53:58.854Z,13.70
2022-09-01T05:56:28.704Z,13.80
2022-09-01T06:01:50.552Z,14.00
2022-09-01T06:04:17.803Z,14.20
2022-09-01T06:07:06.180Z,14.30
2022-09-01T06:09:40.148Z,14.40
2022-09-01T06:12:09.205Z,14.70
2022-09-01T06:14:36.182Z,14.80
2022-09-01T06:17:03.566Z,15.00
2022-09-01T06:19:36.339Z,15.40
2022-09-01T06:22:05.705Z,15.70
2022-09-01T06:24:32.594Z,16.10
2022-09-01T06:26:59.724Z,16.60
2022-09-01T06:29:26.878Z,17.00
2022-09-01T06:31:53.785Z,17.50
2022-09-01T06:34:20.935Z,17.90
2022-09-01T06:36:51.613Z,18.20
2022-09-01T06:39:19.936Z,18.60
2022-09-01T06:41:53.085Z,18.80
2022-09-01T06:44:24.640Z,18.70
2022-09-01T06:47:06.008Z,18.80
2022-09-01T06:49:33.198Z,18.90
2022-09-01T06:52:02.867Z,18.80
2022-09-01T06:54:34.774Z,18.50
2022-09-01T07:02:39.809Z,18.20
2022-09-01T07:08:27.599Z,18.10
2022-09-01T07:14:17.439Z,18.00
2022-09-01T07:16:52.017Z,18.00
2022-09-01T07:19:21.047Z,18.00
2022-09-01T07:22:35.791Z,18.10
2022-09-01T07:25:11.593Z,18.10
2022-09-01T07:27:49.030Z,18.10
2022-09-01T07:30:19.619Z,18.10
2022-09-01T07:32:50.994Z,18.00
2022-09-01T07:35:22.520Z,18.10
2022-09-01T07:43:51.365Z,18.10
2022-09-01T07:47:19.493Z,18.20
2022-09-01T07:50:11.993Z,18.30
2022-09-01T07:52:27.380Z,18.20
2022-09-01T07:54:57.590Z,18.20
2022-09-01T07:57:24.939Z,18.30
2022-09-01T07:59:55.488Z,18.30
2022-09-01T08:02:40.152Z,18.40
2022-09-01T08:05:09.156Z,18.40
2022-09-01T08:07:51.591Z,18.50
2022-09-01T08:10:20.575Z,18.50
2022-09-01T08:12:57.367Z,18.60
2022-09-01T08:16:06.334Z,18.60
2022-09-01T08:18:14.904Z,18.70
2022-09-01T08:20:47.483Z,18.80
2022-09-01T08:23:45.182Z,18.90
2022-09-01T08:26:17.435Z,19.00
2022-09-01T08:28:46.440Z,19.00
2022-09-01T08:31:17.941Z,19.10
2022-09-01T08:33:47.482Z,19.20
2022-09-01T08:36:20.191Z,19.20
2022-09-01T08:38:51.242Z,19.20
2022-09-01T08:41:28.664Z,19.30
2022-09-01T08:44:03.856Z,19.30
2022-09-01T08:46:35.435Z,19.30
2022-09-01T08:49:28.288Z,19.40
2022-09-01T08:52:30.783Z,19.40
2022-09-01T08:55:14.391Z,19.40
2022-09-01T08:57:45.373Z,19.40
2022-09-01T09:00:24.600Z,19.40
2022-09-01T09:03:07.613Z,19.30
2022-09-01T09:06:04.173Z,19.30
2022-09-01T09:08:53.930Z,19.30
2022-09-01T09:11:42.117Z,19.50
2022-09-01T09:14:11.666Z,19.50
2022-09-01T09:16:45.292Z,19.40
2022-09-01T09:19:34.697Z,19.50
2022-09-01T09:22:05.042Z,19.50
2022-09-01T09:24:50.588Z,19.50
2022-09-01T09:27:29.493Z,19.50
2022-09-01T09:30:09.143Z,19.60
2022-09-01T09:33:30.978Z,19.70
2022-09-01T09:35:47.722Z,19.70
2022-09-01T09:38:18.838Z,19.80
2022-09-01T09:41:18.286Z,19.90
2022-09-01T09:44:05.302Z,19.80
2022-09-01T09:46:32.118Z,19.80
2022-09-01T09:49:21.590Z,19.80
2022-09-01T09:52:08.740Z,19.90
2022-09-01T09:54:37.979Z,19.90
2022-09-01T09:57:17.570Z,19.80
2022-09-01T10:00:04.070Z,19.80
2022-09-01T10:02:43.991Z,19.80
2022-09-01T10:05:37.769Z,19.90
2022-09-01T10:08:28.483Z,20.10
2022-09-01T10:10:58.044Z,20.10
2022-09-01T10:13:32.613Z,20.20
2022-09-01T10:16:03.793Z,20.20
2022-09-01T10:18:41.721Z,20.20
2022-09-01T10:21:13.237Z,20.00
2022-09-01T10:23:41.762Z,20.00
2022-09-01T10:26:16.995Z,20.10
2022-09-01T10:29:06.667Z,20.20
2022-09-01T10:31:34.879Z,20.20
2022-09-01T10:34:05.351Z,20.30
2022-09-01T10:36:35.167Z,20.40
2022-09-01T10:39:06.124Z,20.70
2022-09-01T10:42:00.435Z,20.90
2022-09-01T10:44:35.678Z,21.10
2022-09-01T10:47:16.245Z,21.00
2022-09-01T10:49:47.109Z,20.90
2022-09-01T10:52:43.239Z,20.60
2022-09-01T10:55:32.632Z,20.50
2022-09-01T11:01:15.490Z,20.50
2022-09-01T11:03:56.459Z,20.40
2022-09-01T11:09:48.688Z,20.30
2022-09-01T11:12:16.373Z,20.30
2022-09-01T11:14:58.565Z,20.20
2022-09-01T11:17:36.588Z,20.50
2022-09-01T11:20:22.351Z,20.60
2022-09-01T11:22:58.361Z,20.60
2022-09-01T11:25:41.979Z,20.60
2022-09-01T11:28:14.854Z,20.50
2022-09-01T11:30:56.225Z,20.40
2022-09-01T11:33:32.888Z,20.30
2022-09-01T11:36:03.568Z,20.20
2022-09-01T11:38:42.439Z,20.40
2022-09-01T11:41:09.405Z,20.50
2022-09-01T11:43:36.559Z,20.60
2022-09-01T11:46:17.562Z,20.90
2022-09-01T11:48:51.934Z,21.00
2022-09-01T11:51:21.370Z,21.20
2022-09-01T11:53:50.440Z,21.10
2022-09-01T11:56:26.888Z,21.10
2022-09-01T11:58:53.782Z,21.10
2022-09-01T12:01:33.207Z,20.90
2022-09-01T12:04:18.327Z,21.00
2022-09-01T12:06:59.370Z,21.00
2022-09-01T12:09:39.400Z,21.00
2022-09-01T12:12:08.156Z,20.90
2022-09-01T12:14:55.040Z,20.80
2022-09-01T12:17:22.354Z,20.80
2022-09-01T12:19:49.427Z,21.00
2022-09-01T12:22:20.307Z,20.80
2022-09-01T12:24:50.581Z,20.60
2022-09-01T12:27:17.813Z,20.60
2022-09-01T12:29:44.971Z,20.70
2022-09-01T12:32:14.049Z,20.80
2022-09-01T12:34:44.897Z,21.10
2022-09-01T12:37:25.348Z,21.30
2022-09-01T12:39:57.629Z,21.40
2022-09-01T12:42:28.439Z,21.50
2022-09-01T12:45:04.782Z,21.40
2022-09-01T12:47:37.644Z,21.40
2022-09-01T12:50:08.978Z,21.20
2022-09-01T12:52:45.977Z,21.20
2022-09-01T12:58:08.186Z,21.10
2022-09-01T13:00:53.625Z,21.10
2022-09-01T13:03:21.594Z,21.10
2022-09-01T13:05:59.048Z,21.00
2022-09-01T13:08:33.022Z,21.00
2022-09-01T13:11:07.456Z,20.90
2022-09-01T13:13:38.197Z,20.90
2022-09-01T13:16:12.994Z,20.90
2022-09-01T13:21:30.072Z,21.00
2022-09-01T13:23:57.492Z,21.10
2022-09-01T13:26:24.358Z,21.30
2022-09-01T13:28:51.668Z,21.50
2022-09-01T13:31:35.522Z,21.70
2022-09-01T13:34:10.705Z,21.80
2022-09-01T13:36:51.969Z,21.90
2022-09-01T13:39:20.943Z,21.80
2022-09-01T13:41:49.276Z,21.70
2022-09-01T13:44:18.180Z,21.70
2022-09-01T13:47:28.567Z,21.60
2022-09-01T13:52:19.969Z,21.50
2022-09-01T13:54:47.738Z,21.50
2022-09-01T13:57:16.290Z,21.50
2022-09-01T13:59:43.402Z,21.50
2022-09-01T14:02:11.087Z,21.50
2022-09-01T14:04:38.186Z,21.50
2022-09-01T14:07:05.142Z,21.50
2022-09-01T14:09:32.328Z,21.60
2022-09-01T14:11:59.377Z,21.60
2022-09-01T14:14:26.663Z,21.60
2022-09-01T14:16:54.030Z,21.40
2022-09-01T14:19:21.174Z,21.30
2022-09-01T14:21:49.617Z,21.20
2022-09-01T14:24:20.809Z,21.20
2022-09-01T14:26:48.012Z,21.10
2022-09-01T14:29:14.857Z,21.00
2022-09-01T14:31:43.457Z,20.90
2022-09-01T14:34:12.105Z,20.90
2022-09-01T14:36:41.101Z,21.00
2022-09-01T14:39:12.685Z,21.10
2022-09-01T14:41:39.467Z,21.20
2022-09-01T14:44:06.351Z,21.30
2022-09-01T14:46:37.114Z,21.40
2022-09-01T14:49:07.127Z,21.40
2022-09-01T14:54:21.635Z,21.50
2022-09-01T14:59:37.280Z,21.20
2022-09-01T15:02:05.042Z,21.30
2022-09-01T15:04:32.154Z,21.20
2022-09-01T15:06:59.523Z,21.00
2022-09-01T15:09:26.502Z,20.90
2022-09-01T15:11:53.345Z,20.80
2022-09-01T15:14:20.175Z,20.70
2022-09-01T15:16:47.172Z,20.70
2022-09-01T15:19:14.084Z,20.80
2022-09-01T15:21:45.001Z,20.70
2022-09-01T15:24:12.227Z,20.70
2022-09-01T15:26:40.885Z,20.70
2022-09-01T15:29:11.898Z,20.80
2022-09-01T15:31:39.485Z,20.70
2022-09-01T15:34:06.742Z,20.70
2022-09-01T15:36:39.900Z,20.70
2022-09-01T15:39:08.116Z,20.70
2022-09-01T15:41:35.881Z,20.60
2022-09-01T15:44:06.038Z,20.50
2022-09-01T15:46:33.942Z,20.50
2022-09-01T15:49:03.358Z,20.40
2022-09-01T15:51:33.207Z,20.40
2022-09-01T15:54:06.673Z,20.50
2022-09-01T15:56:33.826Z,20.50
2022-09-01T15:59:02.290Z,20.50
2022-09-01T16:01:32.589Z,20.50
2022-09-01T16:04:00.249Z,20.50
2022-09-01T16:06:27.103Z,20.50
2022-09-01T16:08:54.490Z,20.50
2022-09-01T16:11:25.938Z,20.40
2022-09-01T16:13:53.962Z,20.40
2022-09-01T16:16:45.984Z,20.40
2022-09-01T16:19:22.547Z,20.30
2022-09-01T16:22:22.578Z,20.30
2022-09-01T16:24:54.178Z,20.30
2022-09-01T16:27:25.190Z,20.30
2022-09-01T16:29:56.082Z,20.30
2022-09-01T16:32:23.517Z,20.20
2022-09-01T16:34:51.940Z,20.20
2022-09-01T16:37:46.910Z,20.10
2022-09-01T16:40:32.147Z,20.00
2022-09-01T16:43:22.163Z,19.90
2022-09-01T16:45:59.347Z,20.00
2022-09-01T16:48:47.088Z,19.90
2022-09-01T16:51:17.547Z,19.90
2022-09-01T16:53:44.314Z,19.80
2022-09-01T16:56:21.937Z,19.80
2022-09-01T16:59:25.962Z,19.70
2022-09-01T17:02:09.857Z,19.60
2022-09-01T17:04:58.027Z,19.50
2022-09-01T17:07:49.873Z,19.50
2022-09-01T17:10:37.205Z,19.50
2022-09-01T17:13:38.325Z,19.40
2022-09-01T17:16:08.215Z,19.40
2022-09-01T17:18:44.300Z,19.30
2022-09-01T17:21:30.144Z,19.30
2022-09-01T17:24:36.336Z,19.20
2022-09-01T17:27:08.466Z,19.20
2022-09-01T17:29:44.989Z,19.10
2022-09-01T17:32:41.374Z,19.10
2022-09-01T17:35:39.341Z,19.00
2022-09-01T17:38:18.557Z,18.90
2022-09-01T17:40:48.927Z,18.90
2022-09-01T17:43:36.339Z,18.90
2022-09-01T17:46:04.453Z,18.80
2022-09-01T17:48:46.634Z,18.80
2022-09-01T17:51:43.780Z,18.70
2022-09-01T17:54:19.584Z,18.60
2022-09-01T17:56:49.347Z,18.50
2022-09-01T17:59:21.180Z,18.50
2022-09-01T18:02:02.603Z,18.40
2022-09-01T18:05:03.207Z,18.30
2022-09-01T18:07:55.701Z,18.20
2022-09-01T18:10:41.415Z,18.20
2022-09-01T18:13:30.857Z,18.10
2022-09-01T18:16:10.218Z,18.00
2022-09-01T18:18:40.723Z,17.80
2022-09-01T18:21:20.283Z,17.80
2022-09-01T18:23:50.614Z,17.70
2022-09-01T18:26:17.886Z,17.70
2022-09-01T18:28:44.777Z,17.60
2022-09-01T18:31:26.592Z,17.60
2022-09-01T18:34:21.033Z,17.60
2022-09-01T18:36:54.461Z,17.50
2022-09-01T18:39:30.129Z,17.40
2022-09-01T18:42:22.118Z,17.30
2022-09-01T18:44:57.767Z,17.30
2022-09-01T18:47:34.336Z,17.30
2022-09-01T18:50:31.994Z,17.20
2022-09-01T18:53:29.884Z,17.20
2022-09-01T18:56:16.361Z,17.10
2022-09-01T18:58:53.179Z,17.00
2022-09-01T19:01:34.393Z,17.00
2022-09-01T19:04:19.598Z,17.00
2022-09-01T19:07:03.699Z,16.90
2022-09-01T19:09:38.025Z,16.80
2022-09-01T19:12:29.883Z,16.80
2022-09-01T19:15:25.660Z,16.70
2022-09-01T19:18:18.300Z,16.70
2022-09-01T19:20:51.613Z,16.70
2022-09-01T19:23:36.153Z,16.60
2022-09-01T19:26:07.855Z,16.60
2022-09-01T19:28:49.381Z,16.40
2022-09-01T19:31:19.092Z,16.30
2022-09-01T19:33:51.147Z,16.30
2022-09-01T19:36:24.947Z,16.20
2022-09-01T19:38:51.823Z,16.20
2022-09-01T19:41:20.961Z,16.30
2022-09-01T19:43:52.372Z,16.10
2022-09-01T19:46:48.196Z,16.10
2022-09-01T19:49:40.646Z,16.10
2022-09-01T19:52:33.317Z,16.00
2022-09-01T19:55:09.115Z,16.00
2022-09-01T19:57:41.936Z,15.90
2022-09-01T20:00:18.446Z,16.00
2022-09-01T20:03:07.711Z,15.90
2022-09-01T20:05:49.496Z,15.90
2022-09-01T20:08:33.486Z,15.80
2022-09-01T20:11:40.655Z,15.80
2022-09-01T20:14:17.427Z,15.80
2022-09-01T20:16:50.595Z,15.80
2022-09-01T20:19:56.624Z,15.70
2022-09-01T20:22:46.935Z,15.70
2022-09-01T20:25:27.277Z,15.60
2022-09-01T20:28:26.071Z,15.60
2022-09-01T20:31:07.466Z,15.50
2022-09-01T20:34:03.632Z,15.50
2022-09-01T20:36:51.918Z,15.40
2022-09-01T20:39:52.238Z,15.30
2022-09-01T20:42:38.442Z,15.30
2022-09-01T20:45:11.277Z,15.30
2022-09-01T20:47:38.080Z,15.20
2022-09-01T20:50:11.616Z,15.20
2022-09-01T20:52:38.394Z,15.10
2022-09-01T20:55:23.451Z,15.00
2022-09-01T20:58:14.634Z,15.10
2022-09-01T21:01:09.113Z,15.10
2022-09-01T21:03:54.686Z,15.10
2022-09-01T21:06:44.220Z,15.00
2022-09-01T21:09:44.429Z,15.00
2022-09-01T21:12:49.216Z,14.90
2022-09-01T21:15:25.117Z,14.90
2022-09-01T21:17:55.041Z,14.90
2022-09-01T21:20:31.065Z,14.80
2022-09-01T21:22:57.959Z,14.80
2022-09-01T21:25:24.723Z,14.80
2022-09-01T21:27:56.893Z,14.80
2022-09-01T21:30:25.238Z,14.70
2022-09-01T21:32:53.846Z,14.70
2022-09-01T21:35:22.248Z,14.60
2022-09-01T21:37:50.009Z,14.70
2022-09-01T21:40:18.645Z,14.60
2022-09-01T21:42:55.160Z,14.60
2022-09-01T21:45:23.073Z,14.60
2022-09-01T21:47:51.254Z,14.60
2022-09-01T21:50:21.120Z,14.50
2022-09-01T21:52:48.050Z,14.60
2022-09-01T21:55:17.471Z,14.60
2022-09-01T21:57:47.556Z,14.50
2022-09-01T22:00:19.238Z,14.50
2022-09-01T22:02:46.575Z,14.60
2022-09-01T22:05:14.150Z,14.50
2022-09-01T22:07:43.326Z,14.50
2022-09-01T22:10:13.266Z,14.50
2022-09-01T22:12:42.530Z,14.40
2022-09-01T22:15:12.146Z,14.40
2022-09-01T22:17:38.964Z,14.40
2022-09-01T22:20:08.809Z,14.40
2022-09-01T22:22:36.091Z,14.40
2022-09-01T22:25:08.642Z,14.30
2022-09-01T22:27:35.806Z,14.30
2022-09-01T22:30:05.747Z,14.20
2022-09-01T22:32:37.877Z,14.20
2022-09-01T22:35:07.479Z,14.20
2022-09-01T22:37:35.420Z,14.20
2022-09-01T22:40:03.667Z,14.20
2022-09-01T22:42:30.463Z,14.20
2022-09-01T22:44:57.322Z,14.20
2022-09-01T22:47:24.157Z,14.10
2022-09-01T22:49:51.053Z,14.10
2022-09-01T22:52:17.820Z,14.10
2022-09-01T22:54:44.751Z,14.10
2022-09-01T22:57:12.066Z,14.10
2022-09-01T22:59:41.826Z,14.00
2022-09-01T23:02:10.279Z,14.10
2022-09-01T23:04:38.559Z,14.10
2022-09-01T23:07:05.771Z,14.10
2022-09-01T23:09:33.023Z,14.10
2022-09-01T23:11:59.849Z,14.10
2022-09-01T23:14:27.103Z,14.10
2022-09-01T23:16:54.081Z,14.10
2022-09-01T23:19:22.756Z,14.10
2022-09-01T23:21:51.095Z,14.10
2022-09-01T23:24:19.911Z,14.10
2022-09-01T23:26:47.849Z,13.90
2022-09-01T23:29:15.131Z,14.00
2022-09-01T23:31:43.811Z,13.80
2022-09-01T23:34:10.798Z,13.80
2022-09-01T23:36:37.804Z,13.80
2022-09-01T23:39:05.999Z,13.80
2022-09-01T23:41:34.940Z,13.80
2022-09-01T23:44:04.521Z,13.70
2022-09-01T23:46:34.809Z,13.70
2022-09-01T23:49:02.465Z,13.70
2022-09-01T23:51:29.646Z,13.80
2022-09-01T23:53:56.754Z,13.80
2022-09-01T23:56:26.904Z,13.70
2022-09-01T23:58:53.998Z,13.60
